Buffalo, Montana
Current Conditions -  °F | °C
As of 8:54 PM on Saturday 25 Oct 2014 (Local Time) from KLWT Reporting Station
Clear Clear  
Wind Chill: 52°   Ceiling: Unl
Heat Index: 52°   Visibility: 10mi
Dew Point: 42°   Wind: 6mph
Humidity: 69%   Direction: 130°SE
Pressure: 29.68"   Gusts: NA
Location:  46.82°N, 109.82°W
Report Text: KLWT 260254Z AUTO 13005KT 10SM CLR 11/06 A2968 RMK AO2 SLP045 T01110056 57021
Loading
Personal Weather Stations






























Interactive Weather Map
Tropical Storm Tracking
New forecast layout! Learn more

10-Day Weather Forecast

Advertisements
Track Severe Weather on mobile